Rothsay, Minnesota
Current Conditions -  °F | °C
As of 12:14 PM on Friday 19 Dec 2014 (Local Time) from KFFM Reporting Station
Haze Haze  
Wind Chill: 17°   Ceiling: 400
Heat Index: 28°   Visibility: 3mi
Dew Point: 27°   Wind: 14mph
Humidity: 93%   Direction: 170°S
Pressure: 30.1"   Gusts: NA
Location:  46.47°N, 96.29°W
Report Text: KFFM 191814Z AUTO 17012KT 3SM BR OVC004 M02/M03 A3010 RMK AO2
Loading
Personal Weather Stations






























Interactive Weather Map New forecast layout! Learn more

10-Day Weather Forecast

Advertisements
Track Severe Weather on mobile